Greer, SC

5:59 PM EDT on August 31, 2016 (GMT -0400)
Greenville-Spartanburg International | | Change Station

Elev 971 ft 34.88 °N, 82.22 °W | Updated 6 minutes ago

Clear
Clear
90 °F
Feels Like 90 °F
N
4
Wind Variable Wind from NNE

Today
High -- | Low -- °F
--% Chance of Precip.
Yesterday
High -- | Low -- °F
Precip. -- in
Pressure 29.87 in
Visibility 10.0 miles
Clouds Clear
Heat Index 90 °F
Dew Point 62 °F
Humidity 39%
Rainfall 0.09 in
Snow Depth Not available.
7:01 AM 7:56 PM
Waning Crescent, 0% visible
METAR KGSP 312153Z 03003KT 10SM CLR 32/17 A2990 RMK AO2 SLP113 T03220167
Pressure 29.87 in
Visibility 10.0 miles
Clouds Clear
Heat Index 90 °F
Dew Point 62 °F
Humidity 39%
Rainfall 0.09 in
Snow Depth Not available.
7:01 AM 7:56 PM
Waning Crescent, 0% visible
METAR KGSP 312153Z 03003KT 10SM CLR 32/17 A2990 RMK AO2 SLP113 T03220167

10-Day Weather Forecast

Almanac

Astronomy

Aug. 31, 2016 Rise Set
Actual Time
Civil Twilight
Nautical Twilight
Astronomical Twilight
Moon
Length of Visible Light
Length of Day
Tomorrow will be .
, % of the Moon is Illuminated

Today's Extremes

State Highs State Lows

Community

WunderPhotos

Upload Photos

1,936,189 photos uploaded!

WunderBlog® & News

Nearby

Air Quality

  Air Quality AQ Index Pollutant
Not available.

Snow Depth

Station Depth Elevation

Earthquake Activity

City Distance Mag. Time & Date
Minimum magnitude displayed is 2.5.

Coastal Water Temperatures

Place Temperature

Stations

Nearby Weather Stations

Station Location Temp. Windchill Dew Point Humidity Wind Precip. Elev Updated Type
                   

Watches & Warnings

There are currently no watches in effect.